createdAt,value
2018-09-28T00:00:50.064Z,77.69
2018-09-28T00:01:50.074Z,78.06
2018-09-28T00:03:42.991Z,78.41
2018-09-28T00:04:42.990Z,78.59
2018-09-28T00:06:35.888Z,78.35
2018-09-28T00:07:35.907Z,78.41
2018-09-28T00:09:28.850Z,78.59
2018-09-28T00:10:28.825Z,78.50
2018-09-28T00:12:21.725Z,78.31
2018-09-28T00:13:21.741Z,78.78
2018-09-28T00:15:14.647Z,78.98
2018-09-28T00:16:14.656Z,78.88
2018-09-28T00:18:07.555Z,78.59
2018-09-28T00:19:07.571Z,79.07
2018-09-28T00:21:00.552Z,78.69
2018-09-28T00:22:00.492Z,78.88
2018-09-28T00:23:53.389Z,78.69
2018-09-28T00:24:53.410Z,78.41
2018-09-28T00:26:46.317Z,78.69
2018-09-28T00:27:46.324Z,78.88
2018-09-28T00:29:39.236Z,79.07
2018-09-28T00:30:39.244Z,78.78
2018-09-28T00:32:32.149Z,78.78
2018-09-28T00:33:32.166Z,78.98
2018-09-28T00:35:25.072Z,78.98
2018-09-28T00:36:25.078Z,78.88
2018-09-28T00:38:17.987Z,79.55
2018-09-28T00:39:17.999Z,79.60
2018-09-28T00:41:10.942Z,79.55
2018-09-28T00:42:10.918Z,79.64
2018-09-28T00:44:03.977Z,79.55
2018-09-28T00:45:03.995Z,79.83
2018-09-28T00:46:56.898Z,79.74
2018-09-28T00:47:56.908Z,79.74
2018-09-28T00:49:49.803Z,79.64
2018-09-28T00:50:49.819Z,79.70
2018-09-28T00:52:42.734Z,79.60
2018-09-28T00:53:42.740Z,79.60
2018-09-28T00:55:35.647Z,80.08
2018-09-28T00:56:35.655Z,79.89
2018-09-28T00:58:29.549Z,79.70
2018-09-28T00:59:29.567Z,79.51
2018-09-28T01:01:22.471Z,80.18
2018-09-28T01:02:22.480Z,79.99
2018-09-28T01:04:15.377Z,80.46
2018-09-28T01:05:15.394Z,80.46
2018-09-28T01:07:08.328Z,80.55
2018-09-28T01:08:08.311Z,80.36
2018-09-28T01:10:01.209Z,80.75
2018-09-28T01:11:01.227Z,80.99
2018-09-28T01:12:54.147Z,80.80
2018-09-28T01:13:54.149Z,81.09
2018-09-28T01:15:47.061Z,81.28
2018-09-28T01:16:47.065Z,80.99
2018-09-28T01:18:40.158Z,80.99
2018-09-28T01:19:40.181Z,80.80
2018-09-28T01:21:33.105Z,81.37
2018-09-28T01:22:33.094Z,81.56
2018-09-28T01:24:26.011Z,81.76
2018-09-28T01:25:26.013Z,81.37
2018-09-28T01:27:18.917Z,81.66
2018-09-28T01:28:18.920Z,81.76
2018-09-28T01:30:11.822Z,81.85
2018-09-28T01:31:11.841Z,81.66
2018-09-28T01:33:04.754Z,81.85
2018-09-28T01:34:04.751Z,82.32
2018-09-28T01:35:57.663Z,81.95
2018-09-28T01:36:57.669Z,82.51
2018-09-28T01:38:50.569Z,82.51
2018-09-28T01:39:50.583Z,82.14
2018-09-28T01:41:43.492Z,82.23
2018-09-28T01:42:43.498Z,82.04
2018-09-28T01:44:36.397Z,82.51
2018-09-28T01:45:36.413Z,82.23
2018-09-28T01:47:29.318Z,81.76
2018-09-28T01:48:29.325Z,81.95
2018-09-28T01:50:22.224Z,82.14
2018-09-28T01:51:22.241Z,82.61
2018-09-28T01:53:15.145Z,81.85
2018-09-28T01:54:15.156Z,82.14
2018-09-28T01:56:08.051Z,81.76
2018-09-28T01:57:08.068Z,82.23
2018-09-28T01:59:01.018Z,82.14
2018-09-28T02:00:00.983Z,81.95
2018-09-28T02:01:53.881Z,82.51
2018-09-28T02:02:53.896Z,82.04
2018-09-28T02:04:46.805Z,82.42
2018-09-28T02:05:46.810Z,82.32
2018-09-28T02:07:39.715Z,82.51
2018-09-28T02:08:39.725Z,82.23
2018-09-28T02:10:32.626Z,82.04
2018-09-28T02:11:32.641Z,82.32
2018-09-28T02:13:25.548Z,82.32
2018-09-28T02:14:25.556Z,82.32
2018-09-28T02:16:18.458Z,82.32
2018-09-28T02:17:18.478Z,82.51
2018-09-28T02:19:11.386Z,81.95
2018-09-28T02:20:11.396Z,82.18
2018-09-28T02:22:04.289Z,82.93
2018-09-28T02:23:04.309Z,82.84
2018-09-28T02:24:57.217Z,83.03
2018-09-28T02:25:57.226Z,83.13
2018-09-28T02:27:50.148Z,83.32
2018-09-28T02:28:50.138Z,83.32
2018-09-28T02:30:43.056Z,83.32
2018-09-28T02:31:43.056Z,83.32
2018-09-28T02:33:35.983Z,82.75
2018-09-28T02:34:35.974Z,82.93
2018-09-28T02:36:28.899Z,82.69
2018-09-28T02:37:28.889Z,83.07
2018-09-28T02:39:21.802Z,82.89
2018-09-28T02:40:21.809Z,82.98
2018-09-28T02:42:14.714Z,82.89
2018-09-28T02:43:14.727Z,83.07
2018-09-28T02:45:07.810Z,82.64
2018-09-28T02:46:07.819Z,82.26
2018-09-28T02:48:00.722Z,82.64
2018-09-28T02:49:00.735Z,82.07
2018-09-28T02:50:53.650Z,80.92
2018-09-28T02:51:53.659Z,81.02
2018-09-28T02:53:46.584Z,80.92
2018-09-28T02:54:46.589Z,80.64
2018-09-28T02:56:39.501Z,81.30
2018-09-28T02:57:39.520Z,81.02
2018-09-28T02:59:32.437Z,80.35
2018-09-28T03:00:32.447Z,80.16
2018-09-28T03:02:25.349Z,79.49
2018-09-28T03:03:25.357Z,79.68
2018-09-28T03:05:18.262Z,79.21
2018-09-28T03:06:18.301Z,79.59
2018-09-28T03:08:11.171Z,79.30
2018-09-28T03:09:11.194Z,79.88
2018-09-28T03:11:04.098Z,79.88
2018-09-28T03:12:04.107Z,79.88
2018-09-28T03:13:57.023Z,79.49
2018-09-28T03:14:57.023Z,79.59
2018-09-28T03:16:49.919Z,79.68
2018-09-28T03:17:49.937Z,79.59
2018-09-28T03:19:42.848Z,79.68
2018-09-28T03:20:42.858Z,79.49
2018-09-28T03:22:35.763Z,79.53
2018-09-28T03:23:35.781Z,79.63
2018-09-28T03:25:28.694Z,80.01
2018-09-28T03:26:28.709Z,80.11
2018-09-28T03:28:21.607Z,80.11
2018-09-28T03:29:21.626Z,80.39
2018-09-28T03:31:14.545Z,80.30
2018-09-28T03:32:14.555Z,80.68
2018-09-28T03:34:07.454Z,80.54
2018-09-28T03:35:07.471Z,80.77
2018-09-28T03:37:00.381Z,81.15
2018-09-28T03:38:00.390Z,81.15
2018-09-28T03:39:53.290Z,81.06
2018-09-28T03:40:53.311Z,80.96
2018-09-28T03:42:46.219Z,80.68
2018-09-28T03:43:46.229Z,80.49
2018-09-28T03:45:39.141Z,80.58
2018-09-28T03:46:39.155Z,80.49
2018-09-28T03:48:32.049Z,80.58
2018-09-28T03:49:32.067Z,80.39
2018-09-28T03:51:25.054Z,80.39
2018-09-28T03:52:24.988Z,80.53
2018-09-28T03:54:17.886Z,80.43
2018-09-28T03:55:17.902Z,80.58
2018-09-28T03:57:10.851Z,80.53
2018-09-28T03:58:10.819Z,80.43
2018-09-28T04:00:03.721Z,80.33
2018-09-28T04:01:03.740Z,80.62
2018-09-28T04:02:56.710Z,80.81
2018-09-28T04:03:56.661Z,80.15
2018-09-28T04:05:49.578Z,80.24
2018-09-28T04:06:49.581Z,80.33
2018-09-28T04:08:42.492Z,80.24
2018-09-28T04:09:42.507Z,80.43
2018-09-28T04:11:35.414Z,80.91
2018-09-28T04:12:35.426Z,80.05
2018-09-28T04:14:28.348Z,80.24
2018-09-28T04:15:28.345Z,80.33
2018-09-28T04:17:21.255Z,80.15
2018-09-28T04:18:21.267Z,79.86
2018-09-28T04:20:14.167Z,79.86
2018-09-28T04:21:14.183Z,79.96
2018-09-28T04:23:07.163Z,79.77
2018-09-28T04:24:07.103Z,79.57
2018-09-28T04:26:00.002Z,79.96
2018-09-28T04:27:00.025Z,79.77
2018-09-28T04:28:52.985Z,79.86
2018-09-28T04:29:52.941Z,79.77
2018-09-28T04:31:45.874Z,80.53
2018-09-28T04:32:45.861Z,80.24
2018-09-28T04:34:38.768Z,80.81
2018-09-28T04:35:38.782Z,80.91
2018-09-28T04:37:31.721Z,81.29
2018-09-28T04:38:31.702Z,81.38
2018-09-28T04:40:24.604Z,80.72
2018-09-28T04:41:24.617Z,81.01
2018-09-28T04:43:17.534Z,80.53
2018-09-28T04:44:17.542Z,80.72
2018-09-28T04:46:10.443Z,80.38
2018-09-28T04:47:10.460Z,80.66
2018-09-28T04:49:03.372Z,80.57
2018-09-28T04:50:03.383Z,80.91
2018-09-28T04:51:56.297Z,80.09
2018-09-28T04:52:56.308Z,80.57
2018-09-28T04:54:49.218Z,80.33
2018-09-28T04:55:49.228Z,80.85
2018-09-28T04:57:42.137Z,81.01
2018-09-28T04:58:42.147Z,81.01
2018-09-28T05:00:35.055Z,81.77
2018-09-28T05:01:35.069Z,82.34
2018-09-28T05:03:27.976Z,82.91
2018-09-28T05:04:27.986Z,82.72
2018-09-28T05:06:20.886Z,83.48
2018-09-28T05:07:20.992Z,84.16
2018-09-28T05:09:13.981Z,84.06
2018-09-28T05:10:13.996Z,84.06
2018-09-28T05:12:06.900Z,84.06
2018-09-28T05:13:07.018Z,84.82
2018-09-28T05:14:59.839Z,84.44
2018-09-28T05:15:59.849Z,84.44
2018-09-28T05:17:52.758Z,84.72
2018-09-28T05:18:52.767Z,84.63
2018-09-28T05:20:45.663Z,84.63
2018-09-28T05:21:45.683Z,84.63
2018-09-28T05:23:38.598Z,84.53
2018-09-28T05:24:38.609Z,84.48
2018-09-28T05:26:31.505Z,84.67
2018-09-28T05:27:31.524Z,84.39
2018-09-28T05:29:24.441Z,83.91
2018-09-28T05:30:24.455Z,84.00
2018-09-28T05:32:17.494Z,83.91
2018-09-28T05:33:17.370Z,84.10
2018-09-28T05:35:10.282Z,84.20
2018-09-28T05:36:10.290Z,84.10
2018-09-28T05:38:03.198Z,84.48
2018-09-28T05:39:03.207Z,84.67
2018-09-28T05:40:56.120Z,85.05
2018-09-28T05:41:56.130Z,84.86
2018-09-28T05:43:49.101Z,85.15
2018-09-28T05:44:49.048Z,85.15
2018-09-28T05:46:41.953Z,85.72
2018-09-28T05:47:41.969Z,85.15
2018-09-28T05:49:34.881Z,85.25
2018-09-28T05:50:34.887Z,85.63
2018-09-28T05:52:27.794Z,85.63
2018-09-28T05:53:27.809Z,86.20
2018-09-28T05:55:20.718Z,85.82
2018-09-28T05:56:20.728Z,85.91
2018-09-28T05:58:13.629Z,86.10
2018-09-28T05:59:13.649Z,86.30
2018-09-28T06:01:06.558Z,85.72
2018-09-28T06:02:06.565Z,85.82
2018-09-28T06:03:59.473Z,85.15
2018-09-28T06:04:59.491Z,85.44
2018-09-28T06:06:52.404Z,85.15
2018-09-28T06:07:52.419Z,85.29
2018-09-28T06:09:45.322Z,85.58
2018-09-28T06:10:45.334Z,85.48
2018-09-28T06:12:38.243Z,85.38
2018-09-28T06:13:38.254Z,84.62
2018-09-28T06:15:31.162Z,85.00
2018-09-28T06:16:31.177Z,85.19
2018-09-28T06:18:24.121Z,84.52
2018-09-28T06:19:24.098Z,84.72
2018-09-28T06:21:17.011Z,84.43
2018-09-28T06:22:17.021Z,84.72
2018-09-28T06:24:09.991Z,84.62
2018-09-28T06:25:09.940Z,85.29
2018-09-28T06:27:02.874Z,85.38
2018-09-28T06:28:02.864Z,85.38
2018-09-28T06:29:55.791Z,85.58
2018-09-28T06:30:55.793Z,86.05
2018-09-28T06:32:48.703Z,86.39
2018-09-28T06:33:48.714Z,85.96
2018-09-28T06:35:42.338Z,86.43
2018-09-28T06:36:41.637Z,85.96
2018-09-28T06:38:34.565Z,86.15
2018-09-28T06:39:34.557Z,86.53
2018-09-28T06:41:27.465Z,86.63
2018-09-28T06:42:27.685Z,87.01
2018-09-28T06:44:20.381Z,87.10
2018-09-28T06:45:20.401Z,87.10
2018-09-28T06:47:13.311Z,87.87
2018-09-28T06:48:13.335Z,88.15
2018-09-28T06:50:06.226Z,88.06
2018-09-28T06:51:06.242Z,88.73
2018-09-28T06:52:59.155Z,89.06
2018-09-28T06:53:59.270Z,89.20
2018-09-28T06:55:52.062Z,89.11
2018-09-28T06:56:52.075Z,89.59
2018-09-28T06:58:44.990Z,89.87
2018-09-28T06:59:45.054Z,89.87
2018-09-28T07:01:37.931Z,90.16
2018-09-28T07:02:37.954Z,90.06
2018-09-28T07:04:30.830Z,90.16
2018-09-28T07:05:30.868Z,90.16
2018-09-28T07:07:23.759Z,89.68
2018-09-28T07:08:23.773Z,89.78
2018-09-28T07:10:16.673Z,89.87
2018-09-28T07:11:16.691Z,89.53
2018-09-28T07:13:09.601Z,88.58
2018-09-28T07:14:09.610Z,88.44
2018-09-28T07:16:02.514Z,88.58
2018-09-28T07:17:02.533Z,88.54
2018-09-28T07:18:55.460Z,88.54
2018-09-28T07:19:55.474Z,88.87
2018-09-28T07:21:48.401Z,88.68
2018-09-28T07:22:48.397Z,88.39
2018-09-28T07:24:41.383Z,87.53
2018-09-28T07:25:41.318Z,87.72
2018-09-28T07:27:34.221Z,86.86
2018-09-28T07:28:34.238Z,87.34
2018-09-28T07:30:27.149Z,86.76
2018-09-28T07:31:27.161Z,87.05
2018-09-28T07:33:20.070Z,86.67
2018-09-28T07:34:20.081Z,87.05
2018-09-28T07:36:13.041Z,85.62
2018-09-28T07:37:13.167Z,85.57
2018-09-28T07:39:05.920Z,85.18
2018-09-28T07:40:05.922Z,84.99
2018-09-28T07:41:58.910Z,84.61
2018-09-28T07:42:58.845Z,83.65
2018-09-28T07:44:51.756Z,83.27
2018-09-28T07:45:51.767Z,82.60
2018-09-28T07:47:44.683Z,81.93
2018-09-28T07:48:44.696Z,81.16
2018-09-28T07:50:37.613Z,80.88
2018-09-28T07:51:37.620Z,80.69
2018-09-28T07:53:30.549Z,80.30
2018-09-28T07:54:30.546Z,80.21
2018-09-28T07:56:23.455Z,80.02
2018-09-28T07:57:23.476Z,79.83
2018-09-28T07:59:16.391Z,80.69
2018-09-28T08:00:16.403Z,80.79
2018-09-28T08:02:09.310Z,80.69
2018-09-28T08:03:09.329Z,80.50
2018-09-28T08:05:02.255Z,79.64
2018-09-28T08:06:02.251Z,79.25
2018-09-28T08:07:55.157Z,78.97
2018-09-28T08:08:55.175Z,78.39
2018-09-28T08:10:48.085Z,78.20
2018-09-28T08:11:48.099Z,77.92
2018-09-28T08:13:41.002Z,77.86
2018-09-28T08:14:41.021Z,77.57
2018-09-28T08:16:35.170Z,76.90
2018-09-28T08:17:35.168Z,76.71
2018-09-28T08:19:28.088Z,76.84
2018-09-28T08:20:28.089Z,76.14
2018-09-28T08:22:20.997Z,75.95
2018-09-28T08:23:21.038Z,75.89
2018-09-28T08:25:13.930Z,75.41
2018-09-28T08:26:13.943Z,75.89
2018-09-28T08:28:06.849Z,74.84
2018-09-28T08:29:06.865Z,75.22
2018-09-28T08:30:59.781Z,73.79
2018-09-28T08:31:59.808Z,73.30
2018-09-28T08:33:52.696Z,74.36
2018-09-28T08:34:52.719Z,73.97
2018-09-28T08:36:45.703Z,73.55
2018-09-28T08:37:45.643Z,73.84
2018-09-28T08:39:38.550Z,74.74
2018-09-28T08:40:38.568Z,75.12
2018-09-28T08:42:31.487Z,74.07
2018-09-28T08:43:31.511Z,72.44
2018-09-28T08:45:24.411Z,71.77
2018-09-28T08:46:24.420Z,71.20
2018-09-28T08:48:17.327Z,71.20
2018-09-28T08:49:17.357Z,71.93
2018-09-28T08:51:11.259Z,71.58
2018-09-28T08:52:11.274Z,71.20
2018-09-28T08:54:04.194Z,71.39
2018-09-28T08:55:04.219Z,71.01
2018-09-28T08:56:57.132Z,69.86
2018-09-28T08:57:57.140Z,70.05
2018-09-28T08:59:50.072Z,69.38
2018-09-28T09:00:50.070Z,70.15
2018-09-28T09:02:42.981Z,69.00
2018-09-28T09:03:42.997Z,67.94
2018-09-28T09:05:35.901Z,68.07
2018-09-28T09:06:35.921Z,68.27
2018-09-28T09:08:28.840Z,67.50
2018-09-28T09:09:28.848Z,66.16
2018-09-28T09:11:21.765Z,66.35
2018-09-28T09:12:21.776Z,65.78
2018-09-28T09:14:14.685Z,65.49
2018-09-28T09:15:14.702Z,65.20
2018-09-28T09:17:07.621Z,64.34
2018-09-28T09:18:07.769Z,63.67
2018-09-28T09:20:00.535Z,63.76
2018-09-28T09:21:00.558Z,64.34
2018-09-28T09:22:53.479Z,63.76
2018-09-28T09:23:53.537Z,63.67
2018-09-28T09:25:46.398Z,64.88
2018-09-28T09:26:46.419Z,64.72
2018-09-28T09:28:39.334Z,65.58
2018-09-28T09:29:39.344Z,65.11
2018-09-28T09:31:32.253Z,65.78
2018-09-28T09:32:32.275Z,65.78
2018-09-28T09:34:25.193Z,65.39
2018-09-28T09:35:25.203Z,65.01
2018-09-28T09:37:18.117Z,64.15
2018-09-28T09:38:18.131Z,64.25
2018-09-28T09:40:11.037Z,63.00
2018-09-28T09:41:11.061Z,63.57
2018-09-28T09:43:03.980Z,63.19
2018-09-28T09:44:03.989Z,63.67
2018-09-28T09:45:56.897Z,63.48
2018-09-28T09:46:56.921Z,63.76
2018-09-28T09:48:49.843Z,63.86
2018-09-28T09:49:49.840Z,63.96
2018-09-28T09:51:42.755Z,62.90
2018-09-28T09:52:42.771Z,61.76
2018-09-28T09:54:36.678Z,62.43
2018-09-28T09:55:36.693Z,61.66
2018-09-28T09:57:29.599Z,61.66
2018-09-28T09:58:29.620Z,61.94
2018-09-28T10:00:22.533Z,61.94
2018-09-28T10:01:22.547Z,61.94
2018-09-28T10:03:15.466Z,61.66
2018-09-28T10:04:15.479Z,61.98
2018-09-28T10:06:08.411Z,62.36
2018-09-28T10:07:08.406Z,62.26
2018-09-28T10:09:01.322Z,61.98
2018-09-28T10:10:01.333Z,61.69
2018-09-28T10:11:54.241Z,61.47
2018-09-28T10:12:54.323Z,61.66
2018-09-28T10:14:47.196Z,62.04
2018-09-28T10:15:47.193Z,62.71
2018-09-28T10:17:40.102Z,62.65
2018-09-28T10:18:40.123Z,62.36
2018-09-28T10:20:33.034Z,61.50
2018-09-28T10:21:33.052Z,61.21
2018-09-28T10:23:25.970Z,62.01
2018-09-28T10:24:25.977Z,62.87
2018-09-28T10:26:27.054Z,61.82
2018-09-28T10:27:26.072Z,59.93
2018-09-28T10:29:19.952Z,59.93
2018-09-28T10:30:11.836Z,59.16
2018-09-28T10:32:04.745Z,58.30
2018-09-28T10:33:04.767Z,58.30
2018-09-28T10:34:57.685Z,59.64
2018-09-28T10:35:57.699Z,58.30
2018-09-28T10:37:50.610Z,57.63
2018-09-28T10:38:50.632Z,56.76
2018-09-28T10:40:43.618Z,57.82
2018-09-28T10:41:43.563Z,58.11
2018-09-28T10:43:36.465Z,56.38
2018-09-28T10:44:36.493Z,56.48
2018-09-28T10:46:29.473Z,57.72
2018-09-28T10:47:29.424Z,57.63
2018-09-28T10:49:22.343Z,55.80
2018-09-28T10:50:22.357Z,54.85
2018-09-28T10:52:15.484Z,54.75
2018-09-28T10:53:15.290Z,53.24
2018-09-28T10:55:08.203Z,53.82
2018-09-28T10:56:08.216Z,53.63
2018-09-28T10:58:01.155Z,51.32
2018-09-28T10:59:01.146Z,51.23
2018-09-28T11:00:54.078Z,50.84
2018-09-28T11:01:54.077Z,50.65
2018-09-28T11:03:47.085Z,51.71
2018-09-28T11:04:47.122Z,51.61
2018-09-28T11:06:39.931Z,50.87
2018-09-28T11:07:39.946Z,50.29
2018-09-28T11:09:32.868Z,49.91
2018-09-28T11:10:32.925Z,50.68
2018-09-28T11:12:25.808Z,49.24
2018-09-28T11:13:25.824Z,49.43
2018-09-28T11:15:18.946Z,48.88
2018-09-28T11:16:18.956Z,48.69
2018-09-28T11:18:11.945Z,48.40
2018-09-28T11:19:11.891Z,47.15
2018-09-28T11:21:04.805Z,47.75
2018-09-28T11:22:04.821Z,48.23
2018-09-28T11:23:57.741Z,47.08
2018-09-28T11:24:57.755Z,47.17
2018-09-28T11:26:50.674Z,46.98
2018-09-28T11:27:50.811Z,47.56
2018-09-28T11:29:43.605Z,48.23
2018-09-28T11:30:43.630Z,47.36
2018-09-28T11:32:36.546Z,47.27
2018-09-28T11:33:36.603Z,47.17
2018-09-28T11:35:29.484Z,45.54
2018-09-28T11:36:29.506Z,46.02
2018-09-28T11:38:22.440Z,45.35
2018-09-28T11:39:22.442Z,45.83
2018-09-28T11:41:15.369Z,45.92
2018-09-28T11:42:15.370Z,45.32
2018-09-28T11:44:08.282Z,46.19
2018-09-28T11:45:08.360Z,46.58
2018-09-28T11:47:01.233Z,46.86
2018-09-28T11:48:01.251Z,47.15
2018-09-28T11:49:54.163Z,46.48
2018-09-28T11:50:54.181Z,46.67
2018-09-28T11:52:47.112Z,46.48
2018-09-28T11:53:47.122Z,46.38
2018-09-28T11:55:40.040Z,47.53
2018-09-28T11:56:40.080Z,47.15
2018-09-28T11:58:32.978Z,46.48
2018-09-28T11:59:32.992Z,46.38
2018-09-28T12:01:25.904Z,46.96
2018-09-28T12:02:25.925Z,47.63
2018-09-28T12:04:18.875Z,47.51
2018-09-28T12:05:18.882Z,47.99
2018-09-28T12:07:12.062Z,47.41
2018-09-28T12:08:12.007Z,47.51
2018-09-28T12:10:04.932Z,48.35
2018-09-28T12:11:05.006Z,48.25
2018-09-28T12:12:57.858Z,48.25
2018-09-28T12:13:57.871Z,48.16
2018-09-28T12:15:50.898Z,48.54
2018-09-28T12:16:50.804Z,48.16
2018-09-28T12:18:43.789Z,48.54
2018-09-28T12:19:43.736Z,48.35
2018-09-28T12:21:36.679Z,47.32
2018-09-28T12:22:36.665Z,47.71
2018-09-28T12:24:29.583Z,47.41
2018-09-28T12:25:29.593Z,46.94
2018-09-28T12:27:22.609Z,46.36
2018-09-28T12:28:22.525Z,47.15
2018-09-28T12:30:15.486Z,45.52
2018-09-28T12:31:15.456Z,44.94
2018-09-28T12:33:08.406Z,45.23
2018-09-28T12:34:08.386Z,45.32
2018-09-28T12:36:01.316Z,45.71
2018-09-28T12:37:01.326Z,44.92
2018-09-28T12:38:54.259Z,45.52
2018-09-28T12:39:54.320Z,44.75
2018-09-28T12:41:47.165Z,44.46
2018-09-28T12:42:47.243Z,44.46
2018-09-28T12:44:40.159Z,44.65
2018-09-28T12:45:40.177Z,44.37
2018-09-28T12:47:33.028Z,44.84
2018-09-28T12:48:33.090Z,44.75
2018-09-28T12:50:26.139Z,45.61
2018-09-28T12:51:25.983Z,45.52
2018-09-28T12:53:18.896Z,45.23
2018-09-28T12:54:18.937Z,45.59
2018-09-28T12:56:11.859Z,46.45
2018-09-28T12:57:11.850Z,46.55
2018-09-28T12:59:04.761Z,46.17
2018-09-28T13:00:04.780Z,46.53
2018-09-28T13:01:57.722Z,46.43
2018-09-28T13:02:57.721Z,46.43
2018-09-28T13:04:50.873Z,46.74
2018-09-28T13:05:50.890Z,46.53
2018-09-28T13:07:43.810Z,45.37
2018-09-28T13:08:43.870Z,45.47
2018-09-28T13:10:36.744Z,44.51
2018-09-28T13:11:36.751Z,44.70
2018-09-28T13:13:29.664Z,45.86
2018-09-28T13:14:29.806Z,44.51
2018-09-28T13:16:22.597Z,44.63
2018-09-28T13:17:22.616Z,44.23
2018-09-28T13:19:15.521Z,43.96
2018-09-28T13:20:15.558Z,44.34
2018-09-28T13:22:08.453Z,43.38
2018-09-28T13:23:08.472Z,42.13
2018-09-28T13:25:01.380Z,41.94
2018-09-28T13:26:01.401Z,41.94
2018-09-28T13:27:54.390Z,41.58
2018-09-28T13:28:54.335Z,41.94
2018-09-28T13:30:47.439Z,42.25
2018-09-28T13:31:47.266Z,41.77
2018-09-28T13:33:40.174Z,42.06
2018-09-28T13:34:40.196Z,43.79
2018-09-28T13:36:33.175Z,44.65
2018-09-28T13:37:33.134Z,44.27
2018-09-28T13:39:26.047Z,44.84
2018-09-28T13:40:26.100Z,44.75
2018-09-28T13:42:19.015Z,44.37
2018-09-28T13:43:19.002Z,44.27
2018-09-28T13:45:11.987Z,42.52
2018-09-28T13:46:11.968Z,42.43
2018-09-28T13:48:04.918Z,42.04
2018-09-28T13:49:04.871Z,43.48
2018-09-28T13:50:57.781Z,43.07
2018-09-28T13:51:57.833Z,43.36
2018-09-28T13:53:50.809Z,44.80
2018-09-28T13:54:50.792Z,44.63
2018-09-28T13:56:43.731Z,44.06
2018-09-28T13:57:43.676Z,43.96
2018-09-28T13:59:36.593Z,44.34
2018-09-28T14:00:36.614Z,44.44
2018-09-28T14:02:29.582Z,43.65
2018-09-28T14:03:29.537Z,43.84
2018-09-28T14:05:22.446Z,44.23
2018-09-28T14:06:22.512Z,44.44
2018-09-28T14:08:15.427Z,43.96
2018-09-28T14:09:15.414Z,43.19
2018-09-28T14:11:08.308Z,42.61
2018-09-28T14:12:08.366Z,42.43
2018-09-28T14:14:01.247Z,43.00
2018-09-28T14:15:01.257Z,43.38
2018-09-28T14:16:54.167Z,42.81
2018-09-28T14:17:54.193Z,43.12
2018-09-28T14:19:47.103Z,43.02
2018-09-28T14:20:47.211Z,42.54
2018-09-28T14:22:40.073Z,42.93
2018-09-28T14:23:40.051Z,42.73
2018-09-28T14:25:33.970Z,42.64
2018-09-28T14:26:34.021Z,42.44
2018-09-28T14:28:26.988Z,43.60
2018-09-28T14:29:26.912Z,43.79
2018-09-28T14:31:19.819Z,44.08
2018-09-28T14:32:19.877Z,44.46
2018-09-28T14:34:12.818Z,44.08
2018-09-28T14:35:12.779Z,44.17
2018-09-28T14:37:05.694Z,44.17
2018-09-28T14:38:05.719Z,44.56
2018-09-28T14:39:58.659Z,45.14
2018-09-28T14:40:58.671Z,44.68
2018-09-28T14:42:51.589Z,45.25
2018-09-28T14:43:51.611Z,45.23
2018-09-28T14:45:44.523Z,44.87
2018-09-28T14:46:44.547Z,44.84
2018-09-28T14:48:37.522Z,46.41
2018-09-28T14:49:37.469Z,46.96
2018-09-28T14:51:31.382Z,47.34
2018-09-28T14:52:31.440Z,48.40
2018-09-28T14:54:24.348Z,48.66
2018-09-28T14:55:24.327Z,49.60
2018-09-28T14:57:17.255Z,50.46
2018-09-28T14:58:17.274Z,50.08
2018-09-28T15:00:11.256Z,51.81
2018-09-28T15:01:11.276Z,50.92
2018-09-28T15:03:04.096Z,51.59
2018-09-28T15:04:04.118Z,51.49
2018-09-28T15:05:57.071Z,51.68
2018-09-28T15:06:57.146Z,52.07
2018-09-28T15:08:50.031Z,53.31
2018-09-28T15:09:49.981Z,52.55
2018-09-28T15:11:42.897Z,52.71
2018-09-28T15:12:42.977Z,53.31
2018-09-28T15:14:37.004Z,53.28
2018-09-28T15:15:36.998Z,53.58
2018-09-28T15:17:29.925Z,53.86
2018-09-28T15:18:29.954Z,54.53
2018-09-28T15:20:22.863Z,54.53
2018-09-28T15:21:22.887Z,54.82
2018-09-28T15:23:15.804Z,54.05
2018-09-28T15:24:15.820Z,54.63
2018-09-28T15:26:08.750Z,54.05
2018-09-28T15:27:08.740Z,54.50
2018-09-28T15:29:01.646Z,53.19
2018-09-28T15:30:01.793Z,52.71
2018-09-28T15:31:54.611Z,53.09
2018-09-28T15:32:54.620Z,52.69
2018-09-28T15:34:47.549Z,53.09
2018-09-28T15:35:47.549Z,53.19
2018-09-28T15:37:40.506Z,53.19
2018-09-28T15:38:40.482Z,51.73
2018-09-28T15:40:33.396Z,51.54
2018-09-28T15:41:33.429Z,51.65
2018-09-28T15:43:26.323Z,52.01
2018-09-28T15:44:26.342Z,52.14
2018-09-28T15:46:19.264Z,51.85
2018-09-28T15:47:19.282Z,51.75
2018-09-28T15:49:12.230Z,51.85
2018-09-28T15:50:12.211Z,51.85
2018-09-28T15:52:05.116Z,51.73
2018-09-28T15:53:05.137Z,51.82
2018-09-28T15:54:58.054Z,52.87
2018-09-28T15:55:58.097Z,52.78
2018-09-28T15:57:50.974Z,52.69
2018-09-28T15:58:50.996Z,53.07
2018-09-28T16:00:43.921Z,53.16
2018-09-28T16:01:43.922Z,53.55
2018-09-28T16:03:36.843Z,53.45
2018-09-28T16:04:36.846Z,54.03
2018-09-28T16:06:29.766Z,54.50
2018-09-28T16:07:29.778Z,55.27
2018-09-28T16:09:22.715Z,56.01
2018-09-28T16:10:22.705Z,56.23
2018-09-28T16:12:15.805Z,56.23
2018-09-28T16:13:15.839Z,56.87
2018-09-28T16:15:08.798Z,57.06
2018-09-28T16:16:08.741Z,57.54
2018-09-28T16:18:01.655Z,57.83
2018-09-28T16:19:01.675Z,57.83
2018-09-28T16:20:54.630Z,57.73
2018-09-28T16:21:54.601Z,57.83
2018-09-28T16:23:47.540Z,58.22
2018-09-28T16:24:47.640Z,57.73
2018-09-28T16:26:40.448Z,57.54
2018-09-28T16:27:40.468Z,57.45
2018-09-28T16:29:33.407Z,56.30
2018-09-28T16:30:33.390Z,56.39
2018-09-28T16:32:26.300Z,55.63
2018-09-28T16:33:26.316Z,55.73
2018-09-28T16:35:19.229Z,55.82
2018-09-28T16:36:19.245Z,55.91
2018-09-28T16:38:12.151Z,53.81
2018-09-28T16:39:12.165Z,54.10
2018-09-28T16:41:05.098Z,54.07
2018-09-28T16:42:05.091Z,54.07
2018-09-28T16:43:57.998Z,54.16
2018-09-28T16:44:58.029Z,54.36
2018-09-28T16:46:51.006Z,54.36
2018-09-28T16:47:51.010Z,54.36
2018-09-28T16:49:43.871Z,53.97
2018-09-28T16:50:43.863Z,53.97
2018-09-28T16:52:37.052Z,53.69
2018-09-28T16:53:37.065Z,53.97
2018-09-28T16:55:29.995Z,54.55
2018-09-28T16:56:30.006Z,54.55
2018-09-28T16:58:22.917Z,54.36
2018-09-28T16:59:22.933Z,54.14
2018-09-28T17:01:15.865Z,54.33
2018-09-28T17:02:15.942Z,54.90
2018-09-28T17:04:08.831Z,54.71
2018-09-28T17:05:08.821Z,55.10
2018-09-28T17:07:01.811Z,55.96
2018-09-28T17:08:01.841Z,55.67
2018-09-28T17:09:55.543Z,55.67
2018-09-28T17:10:55.599Z,56.05
2018-09-28T17:12:48.720Z,56.24
2018-09-28T17:13:48.522Z,56.24
2018-09-28T17:15:42.483Z,56.24
2018-09-28T17:16:42.430Z,56.43
2018-09-28T17:18:35.345Z,56.05
2018-09-28T17:19:35.385Z,56.82
2018-09-28T17:21:28.296Z,56.43
2018-09-28T17:22:28.356Z,56.62
2018-09-28T17:24:21.197Z,56.24
2018-09-28T17:25:21.215Z,56.62
2018-09-28T17:27:14.131Z,57.01
2018-09-28T17:28:14.150Z,57.58
2018-09-28T17:30:07.051Z,57.46
2018-09-28T17:31:07.060Z,57.58
2018-09-28T17:32:59.973Z,57.36
2018-09-28T17:33:59.978Z,57.36
2018-09-28T17:35:52.907Z,57.84
2018-09-28T17:36:52.901Z,57.84
2018-09-28T17:38:45.811Z,57.93
2018-09-28T17:39:45.825Z,58.22
2018-09-28T17:41:38.735Z,59.27
2018-09-28T17:42:38.759Z,59.08
2018-09-28T17:44:31.649Z,59.18
2018-09-28T17:45:31.668Z,59.56
2018-09-28T17:47:24.583Z,59.84
2018-09-28T17:48:24.657Z,60.23
2018-09-28T17:50:18.555Z,59.94
2018-09-28T17:51:18.515Z,60.30
2018-09-28T17:53:11.470Z,60.87
2018-09-28T17:54:11.434Z,60.10
2018-09-28T17:56:04.346Z,60.77
2018-09-28T17:57:04.365Z,60.68
2018-09-28T17:58:57.325Z,60.87
2018-09-28T17:59:57.318Z,60.96
2018-09-28T18:01:50.227Z,60.87
2018-09-28T18:02:50.236Z,60.87
2018-09-28T18:04:43.168Z,60.77
2018-09-28T18:05:43.277Z,61.54
2018-09-28T18:07:36.063Z,62.01
2018-09-28T18:08:36.080Z,61.72
2018-09-28T18:10:28.980Z,61.54
2018-09-28T18:11:28.999Z,61.32
2018-09-28T18:13:21.923Z,61.35
2018-09-28T18:14:21.971Z,62.08
2018-09-28T18:16:14.833Z,62.78
2018-09-28T18:17:14.859Z,62.75
2018-09-28T18:19:07.794Z,62.84
2018-09-28T18:20:07.767Z,62.27
2018-09-28T18:22:00.682Z,62.94
2018-09-28T18:23:00.681Z,62.55
2018-09-28T18:24:53.589Z,62.84
2018-09-28T18:25:53.606Z,63.13
2018-09-28T18:27:46.533Z,63.13
2018-09-28T18:28:46.529Z,63.60
2018-09-28T18:30:39.927Z,63.70
2018-09-28T18:31:39.942Z,63.80
2018-09-28T18:33:33.870Z,63.32